createdAt,value
2022-11-24T00:00:27.337Z,101277.28
2022-11-24T00:01:32.742Z,101271.03
2022-11-24T00:02:35.344Z,101274.91
2022-11-24T00:03:39.145Z,101271.31
2022-11-24T00:04:42.489Z,101271.69
2022-11-24T00:05:46.290Z,101270.44
2022-11-24T00:06:49.632Z,101268.41
2022-11-24T00:07:51.973Z,101271.75
2022-11-24T00:08:56.521Z,101259.22
2022-11-24T00:09:59.126Z,101256.78
2022-11-24T00:11:07.838Z,101261.88
2022-11-24T00:12:11.156Z,101259.84
2022-11-24T00:13:13.348Z,101258.53
2022-11-24T00:14:16.648Z,101260.94
2022-11-24T00:15:19.210Z,101250.94
2022-11-24T00:16:24.605Z,101253.94
2022-11-24T00:17:27.058Z,101249.91
2022-11-24T00:18:30.367Z,101246.97
2022-11-24T00:19:33.684Z,101261.56
2022-11-24T00:20:35.956Z,101260.22
2022-11-24T00:21:40.713Z,101268.13
2022-11-24T00:22:43.228Z,101259.25
2022-11-24T00:23:47.073Z,101275.84
2022-11-24T00:24:49.357Z,101273.75
2022-11-24T00:25:52.713Z,101271.31
2022-11-24T00:26:55.235Z,101279.38
2022-11-24T00:27:58.665Z,101274.97
2022-11-24T00:29:03.240Z,101268.91
2022-11-24T00:30:07.566Z,101275.22
2022-11-24T00:31:17.762Z,101280.41
2022-11-24T00:32:21.381Z,101278.28
2022-11-24T00:33:23.769Z,101281.34
2022-11-24T00:34:27.331Z,101277.72
2022-11-24T00:35:29.657Z,101280.47
2022-11-24T00:36:35.441Z,101287.63
2022-11-24T00:37:39.160Z,101286.81
2022-11-24T00:38:42.503Z,101278.88
2022-11-24T00:39:44.721Z,101285.13
2022-11-24T00:40:48.097Z,101282.22
2022-11-24T00:41:50.300Z,101284.56
2022-11-24T00:42:53.957Z,101276.88
2022-11-24T00:43:57.656Z,101274.31
2022-11-24T00:45:12.910Z,101272.88
2022-11-24T00:46:16.226Z,101278.34
2022-11-24T00:47:19.629Z,101275.22
2022-11-24T00:48:22.452Z,101274.91
2022-11-24T00:49:25.790Z,101273.88
2022-11-24T00:50:28.275Z,101272.63
2022-11-24T00:51:31.952Z,101271.91
2022-11-24T00:52:34.418Z,101270.31
2022-11-24T00:53:39.346Z,101272.44
2022-11-24T00:54:41.660Z,101267.84
2022-11-24T00:55:45.046Z,101268.34
2022-11-24T00:56:47.868Z,101265.75
2022-11-24T00:57:51.396Z,101267.31
2022-11-24T00:58:54.230Z,101275.19
2022-11-24T00:59:57.529Z,101277.53
2022-11-24T01:01:02.904Z,101276.66
2022-11-24T01:02:06.333Z,101268.72
2022-11-24T01:03:08.538Z,101284.50
2022-11-24T01:04:11.785Z,101269.66
2022-11-24T01:05:14.083Z,101273.59
2022-11-24T01:06:20.033Z,101274.31
2022-11-24T01:07:22.321Z,101271.41
2022-11-24T01:08:25.829Z,101266.59
2022-11-24T01:09:29.622Z,101267.69
2022-11-24T01:10:33.567Z,101270.22
2022-11-24T01:11:51.441Z,101262.25
2022-11-24T01:12:54.943Z,101270.16
2022-11-24T01:13:59.277Z,101275.94
2022-11-24T01:15:02.974Z,101273.38
2022-11-24T01:16:05.988Z,101272.34
2022-11-24T01:17:09.294Z,101279.97
2022-11-24T01:18:11.611Z,101275.16
2022-11-24T01:19:15.007Z,101271.19
2022-11-24T01:20:17.878Z,101274.41
2022-11-24T01:21:21.878Z,101274.72
2022-11-24T01:22:25.115Z,101277.09
2022-11-24T01:23:28.497Z,101278.69
2022-11-24T01:24:32.593Z,101285.84
2022-11-24T01:25:36.575Z,101286.66
2022-11-24T01:26:39.711Z,101283.03
2022-11-24T01:27:42.960Z,101287.56
2022-11-24T01:28:47.671Z,101285.00
2022-11-24T01:29:51.258Z,101291.41
2022-11-24T01:30:58.387Z,101295.50
2022-11-24T01:32:01.871Z,101288.41
2022-11-24T01:33:05.192Z,101295.34
2022-11-24T01:34:08.860Z,101289.84
2022-11-24T01:35:11.215Z,101287.78
2022-11-24T01:36:14.882Z,101291.50
2022-11-24T01:37:17.483Z,101293.00
2022-11-24T01:38:21.309Z,101299.63
2022-11-24T01:39:24.608Z,101301.59
2022-11-24T01:40:28.178Z,101303.72
2022-11-24T01:41:31.458Z,101298.31
2022-11-24T01:42:53.807Z,101306.44
2022-11-24T01:43:56.735Z,101305.81
2022-11-24T01:45:33.486Z,101307.03
2022-11-24T01:46:42.201Z,101317.41
2022-11-24T01:47:45.867Z,101315.38
2022-11-24T01:48:52.774Z,101311.41
2022-11-24T01:50:00.139Z,101313.94
2022-11-24T01:51:10.893Z,101311.94
2022-11-24T01:52:20.334Z,101308.06
2022-11-24T01:53:24.562Z,101305.94
2022-11-24T01:54:31.945Z,101316.97
2022-11-24T01:55:39.207Z,101320.50
2022-11-24T01:56:46.836Z,101317.34
2022-11-24T01:57:52.427Z,101317.22
2022-11-24T01:58:58.767Z,101321.19
2022-11-24T02:00:05.175Z,101327.34
2022-11-24T02:01:09.672Z,101321.84
2022-11-24T02:02:12.820Z,101324.78
2022-11-24T02:03:19.488Z,101325.41
2022-11-24T02:04:25.749Z,101328.56
2022-11-24T02:05:34.980Z,101324.22
2022-11-24T02:06:39.759Z,101333.44
2022-11-24T02:07:43.258Z,101329.81
2022-11-24T02:08:51.308Z,101338.41
2022-11-24T02:09:57.109Z,101332.13
2022-11-24T02:11:02.938Z,101340.56
2022-11-24T02:12:08.277Z,101336.06
2022-11-24T02:13:11.066Z,101333.00
2022-11-24T02:14:17.097Z,101333.34
2022-11-24T02:15:20.365Z,101334.56
2022-11-24T02:16:24.069Z,101336.75
2022-11-24T02:17:26.444Z,101331.94
2022-11-24T02:18:30.116Z,101328.22
2022-11-24T02:19:44.531Z,101333.34
2022-11-24T02:20:47.942Z,101329.38
2022-11-24T02:21:50.440Z,101325.75
2022-11-24T02:22:58.504Z,101322.78
2022-11-24T02:24:07.968Z,101319.28
2022-11-24T02:25:18.225Z,101316.50
2022-11-24T02:26:30.167Z,101315.13
2022-11-24T02:27:33.952Z,101314.16
2022-11-24T02:28:36.656Z,101320.22
2022-11-24T02:29:41.480Z,101320.88
2022-11-24T02:30:43.921Z,101321.06
2022-11-24T02:31:50.348Z,101317.56
2022-11-24T02:32:53.190Z,101323.69
2022-11-24T02:33:57.430Z,101320.81
2022-11-24T02:35:03.828Z,101323.91
2022-11-24T02:36:07.804Z,101331.81
2022-11-24T02:37:10.214Z,101335.00
2022-11-24T02:38:14.611Z,101335.69
2022-11-24T02:39:17.341Z,101337.28
2022-11-24T02:40:25.535Z,101342.78
2022-11-24T02:41:29.338Z,101347.38
2022-11-24T02:42:38.508Z,101348.28
2022-11-24T02:43:43.735Z,101344.59
2022-11-24T02:44:52.208Z,101348.75
2022-11-24T02:45:54.580Z,101355.63
2022-11-24T02:47:05.885Z,101350.94
2022-11-24T02:48:08.503Z,101352.84
2022-11-24T02:49:11.903Z,101353.75
2022-11-24T02:50:14.286Z,101358.94
2022-11-24T02:51:17.880Z,101366.72
2022-11-24T02:52:20.239Z,101364.34
2022-11-24T02:53:23.882Z,101368.41
2022-11-24T02:54:26.145Z,101356.94
2022-11-24T02:55:29.793Z,101365.38
2022-11-24T02:56:33.536Z,101363.88
2022-11-24T02:57:36.917Z,101362.72
2022-11-24T02:58:39.390Z,101366.22
2022-11-24T02:59:42.886Z,101361.34
2022-11-24T03:00:45.339Z,101363.16
2022-11-24T03:01:48.745Z,101366.88
2022-11-24T03:02:51.369Z,101355.84
2022-11-24T03:03:54.789Z,101357.34
2022-11-24T03:04:57.342Z,101361.53
2022-11-24T03:06:00.733Z,101351.38
2022-11-24T03:07:03.100Z,101359.19
2022-11-24T03:08:06.616Z,101359.25
2022-11-24T03:09:09.814Z,101353.97
2022-11-24T03:10:13.154Z,101357.63
2022-11-24T03:11:15.513Z,101358.88
2022-11-24T03:12:20.229Z,101360.69
2022-11-24T03:13:22.797Z,101364.63
2022-11-24T03:14:26.235Z,101359.31
2022-11-24T03:15:28.701Z,101367.91
2022-11-24T03:16:32.561Z,101366.56
2022-11-24T03:17:34.940Z,101366.31
2022-11-24T03:18:38.551Z,101363.94
2022-11-24T03:19:41.063Z,101361.31
2022-11-24T03:20:44.391Z,101369.59
2022-11-24T03:21:46.823Z,101367.66
2022-11-24T03:22:50.240Z,101371.72
2022-11-24T03:23:53.415Z,101369.84
2022-11-24T03:24:56.866Z,101372.25
2022-11-24T03:26:08.544Z,101367.59
2022-11-24T03:27:12.346Z,101377.38
2022-11-24T03:28:16.515Z,101386.09
2022-11-24T03:29:19.933Z,101379.41
2022-11-24T03:30:22.245Z,101383.16
2022-11-24T03:31:26.112Z,101382.94
2022-11-24T03:32:28.609Z,101381.63
2022-11-24T03:33:32.558Z,101393.59
2022-11-24T03:34:35.048Z,101389.34
2022-11-24T03:35:38.612Z,101394.63
2022-11-24T03:36:41.060Z,101387.47
2022-11-24T03:37:44.626Z,101389.56
2022-11-24T03:38:47.453Z,101389.75
2022-11-24T03:39:50.718Z,101394.78
2022-11-24T03:40:53.392Z,101392.16
2022-11-24T03:41:56.687Z,101397.41
2022-11-24T03:42:58.992Z,101395.56
2022-11-24T03:44:04.159Z,101392.94
2022-11-24T03:46:30.596Z,101398.44
2022-11-24T03:47:32.960Z,101399.53
2022-11-24T03:48:36.512Z,101403.09
2022-11-24T03:49:39.024Z,101408.00
2022-11-24T03:50:42.396Z,101406.28
2022-11-24T03:51:45.954Z,101415.81
2022-11-24T03:52:48.384Z,101421.84
2022-11-24T03:53:52.470Z,101420.03
2022-11-24T03:54:55.233Z,101415.50
2022-11-24T03:55:59.497Z,101415.78
2022-11-24T03:57:02.042Z,101420.03
2022-11-24T03:58:05.432Z,101422.19
2022-11-24T03:59:09.378Z,101417.94
2022-11-24T04:00:13.591Z,101426.47
2022-11-24T04:01:17.009Z,101422.09
2022-11-24T04:02:20.357Z,101423.66
2022-11-24T04:03:23.289Z,101429.34
2022-11-24T04:04:26.709Z,101435.66
2022-11-24T04:05:28.932Z,101433.06
2022-11-24T04:06:32.548Z,101432.16
2022-11-24T04:07:34.860Z,101428.31
2022-11-24T04:08:38.104Z,101433.34
2022-11-24T04:09:40.806Z,101430.94
2022-11-24T04:10:44.309Z,101436.59
2022-11-24T04:12:04.257Z,101440.78
2022-11-24T04:13:12.403Z,101440.91
2022-11-24T04:14:16.458Z,101443.72
2022-11-24T04:15:21.456Z,101446.44
2022-11-24T04:16:24.110Z,101447.97
2022-11-24T04:17:27.390Z,101450.66
2022-11-24T04:18:30.706Z,101444.00
2022-11-24T04:19:32.973Z,101446.16
2022-11-24T04:20:36.322Z,101447.13
2022-11-24T04:21:38.473Z,101445.69
2022-11-24T04:22:41.780Z,101441.63
2022-11-24T04:23:43.993Z,101447.41
2022-11-24T04:24:47.490Z,101454.56
2022-11-24T04:25:49.853Z,101451.06
2022-11-24T04:26:53.238Z,101445.97
2022-11-24T04:27:56.675Z,101448.34
2022-11-24T04:29:00.081Z,101445.25
2022-11-24T04:30:04.847Z,101450.16
2022-11-24T04:31:08.558Z,101456.03
2022-11-24T04:32:11.426Z,101449.13
2022-11-24T04:33:15.562Z,101448.59
2022-11-24T04:34:18.012Z,101447.50
2022-11-24T04:35:22.289Z,101438.19
2022-11-24T04:36:24.704Z,101440.56
2022-11-24T04:37:28.251Z,101442.75
2022-11-24T04:39:20.106Z,101452.47
2022-11-24T04:39:55.227Z,101443.63
2022-11-24T04:41:01.531Z,101448.28
2022-11-24T04:42:04.889Z,101448.53
2022-11-24T04:43:06.997Z,101447.00
2022-11-24T04:44:10.355Z,101449.75
2022-11-24T04:45:15.746Z,101449.19
2022-11-24T04:46:19.222Z,101446.81
2022-11-24T04:47:23.420Z,101442.16
2022-11-24T04:48:26.704Z,101450.66
2022-11-24T04:49:29.066Z,101445.94
2022-11-24T04:50:32.317Z,101448.69
2022-11-24T04:51:34.459Z,101448.66
2022-11-24T04:52:37.699Z,101453.84
2022-11-24T04:53:40.005Z,101457.00
2022-11-24T04:54:43.560Z,101455.47
2022-11-24T04:55:45.811Z,101458.69
2022-11-24T04:56:51.932Z,101460.06
2022-11-24T04:57:54.190Z,101464.00
2022-11-24T04:58:57.473Z,101461.91
2022-11-24T04:59:59.649Z,101461.53
2022-11-24T05:01:08.327Z,101462.84
2022-11-24T05:02:10.697Z,101463.56
2022-11-24T05:03:14.090Z,101464.44
2022-11-24T05:04:17.546Z,101465.47
2022-11-24T05:05:21.090Z,101469.56
2022-11-24T05:06:23.817Z,101467.34
2022-11-24T05:07:27.109Z,101466.47
2022-11-24T05:08:29.487Z,101467.00
2022-11-24T05:09:58.142Z,101473.53
2022-11-24T05:10:55.106Z,101474.03
2022-11-24T05:11:58.522Z,101479.28
2022-11-24T05:13:01.102Z,101481.25
2022-11-24T05:14:04.756Z,101482.88
2022-11-24T05:15:08.437Z,101483.97
2022-11-24T05:16:13.946Z,101482.00
2022-11-24T05:17:16.266Z,101480.53
2022-11-24T05:18:19.624Z,101483.25
2022-11-24T05:19:21.928Z,101487.00
2022-11-24T05:20:26.233Z,101486.44
2022-11-24T05:21:28.803Z,101486.78
2022-11-24T05:22:32.957Z,101483.31
2022-11-24T05:23:36.283Z,101490.66
2022-11-24T05:24:39.765Z,101493.63
2022-11-24T05:25:47.444Z,101485.66
2022-11-24T05:26:51.161Z,101491.22
2022-11-24T05:27:53.570Z,101490.75
2022-11-24T05:28:56.898Z,101484.53
2022-11-24T05:29:59.229Z,101488.19
2022-11-24T05:31:03.282Z,101484.50
2022-11-24T05:32:07.548Z,101494.16
2022-11-24T05:33:17.213Z,101490.44
2022-11-24T05:34:19.803Z,101494.56
2022-11-24T05:35:23.532Z,101494.25
2022-11-24T05:36:44.267Z,101496.88
2022-11-24T05:37:47.757Z,101497.44
2022-11-24T05:38:50.009Z,101496.88
2022-11-24T05:39:54.714Z,101492.88
2022-11-24T05:41:01.143Z,101495.66
2022-11-24T05:42:26.141Z,101495.28
2022-11-24T05:43:28.453Z,101498.31
2022-11-24T05:44:32.100Z,101488.91
2022-11-24T05:45:34.649Z,101499.53
2022-11-24T05:46:38.406Z,101504.69
2022-11-24T05:47:42.552Z,101503.19
2022-11-24T05:48:45.931Z,101505.22
2022-11-24T05:49:48.468Z,101500.63
2022-11-24T05:50:55.889Z,101506.78
2022-11-24T05:51:58.135Z,101508.84
2022-11-24T05:53:04.188Z,101511.28
2022-11-24T05:54:06.711Z,101509.88
2022-11-24T05:55:12.095Z,101504.56
2022-11-24T05:56:14.475Z,101503.34
2022-11-24T05:57:18.302Z,101510.03
2022-11-24T05:58:22.000Z,101501.03
2022-11-24T05:59:24.748Z,101509.94
2022-11-24T06:00:29.071Z,101507.09
2022-11-24T06:01:31.405Z,101516.50
2022-11-24T06:02:34.839Z,101515.53
2022-11-24T06:03:38.584Z,101520.06
2022-11-24T06:04:41.986Z,101521.03
2022-11-24T06:05:48.704Z,101524.22
2022-11-24T06:06:51.197Z,101525.31
2022-11-24T06:07:55.184Z,101522.88
2022-11-24T06:08:57.953Z,101519.84
2022-11-24T06:10:01.700Z,101522.22
2022-11-24T06:11:17.415Z,101532.31
2022-11-24T06:12:21.350Z,101528.22
2022-11-24T06:13:23.792Z,101534.94
2022-11-24T06:14:27.379Z,101534.50
2022-11-24T06:15:30.860Z,101538.56
2022-11-24T06:16:33.689Z,101533.53
2022-11-24T06:17:37.132Z,101535.84
2022-11-24T06:18:41.080Z,101538.00
2022-11-24T06:19:47.952Z,101541.84
2022-11-24T06:21:09.811Z,101548.59
2022-11-24T06:22:13.309Z,101550.19
2022-11-24T06:23:16.576Z,101558.47
2022-11-24T06:24:18.809Z,101555.69
2022-11-24T06:25:22.182Z,101563.88
2022-11-24T06:26:24.683Z,101560.28
2022-11-24T06:27:27.937Z,101563.00
2022-11-24T06:28:30.169Z,101556.91
2022-11-24T06:29:33.354Z,101557.63
2022-11-24T06:30:35.541Z,101560.69
2022-11-24T06:31:38.868Z,101555.19
2022-11-24T06:32:49.159Z,101558.94
2022-11-24T06:33:54.740Z,101558.28
2022-11-24T06:34:58.277Z,101559.66
2022-11-24T06:36:04.925Z,101559.59
2022-11-24T06:37:08.237Z,101560.78
2022-11-24T06:38:11.185Z,101561.06
2022-11-24T06:39:14.526Z,101562.53
2022-11-24T06:40:17.329Z,101552.66
2022-11-24T06:41:21.440Z,101558.44
2022-11-24T06:42:23.780Z,101561.34
2022-11-24T06:43:28.020Z,101562.47
2022-11-24T06:44:31.650Z,101567.72
2022-11-24T06:45:34.024Z,101559.84
2022-11-24T06:46:37.373Z,101556.31
2022-11-24T06:47:39.606Z,101557.34
2022-11-24T06:48:42.821Z,101550.34
2022-11-24T06:49:46.383Z,101550.50
2022-11-24T06:50:49.588Z,101553.47
2022-11-24T06:51:51.723Z,101550.66
2022-11-24T06:52:56.208Z,101547.31
2022-11-24T06:53:58.384Z,101544.13
2022-11-24T06:55:01.754Z,101546.03
2022-11-24T06:56:06.704Z,101547.00
2022-11-24T06:57:11.738Z,101545.56
2022-11-24T06:58:14.135Z,101547.06
2022-11-24T06:59:19.258Z,101546.78
2022-11-24T07:00:21.976Z,101545.09
2022-11-24T07:01:27.092Z,101548.94
2022-11-24T07:02:30.368Z,101541.88
2022-11-24T07:03:32.597Z,101549.38
2022-11-24T07:04:36.517Z,101553.69
2022-11-24T07:05:40.434Z,101554.00
2022-11-24T07:06:44.440Z,101554.00
2022-11-24T07:07:46.585Z,101552.97
2022-11-24T07:08:50.032Z,101553.50
2022-11-24T07:09:53.282Z,101561.41
2022-11-24T07:10:55.445Z,101559.13
2022-11-24T07:11:58.703Z,101560.16
2022-11-24T07:13:04.044Z,101556.50
2022-11-24T07:14:07.809Z,101560.38
2022-11-24T07:15:11.872Z,101563.19
2022-11-24T07:16:15.772Z,101564.69
2022-11-24T07:17:19.062Z,101568.53
2022-11-24T07:18:21.332Z,101575.72
2022-11-24T07:19:25.357Z,101572.50
2022-11-24T07:20:27.689Z,101576.25
2022-11-24T07:21:32.862Z,101574.47
2022-11-24T07:22:35.738Z,101579.03
2022-11-24T07:23:39.506Z,101585.72
2022-11-24T07:24:42.953Z,101589.78
2022-11-24T07:25:45.171Z,101594.94
2022-11-24T07:26:48.521Z,101589.31
2022-11-24T07:27:55.488Z,101596.41
2022-11-24T07:28:58.752Z,101590.19
2022-11-24T07:30:02.118Z,101588.34
2022-11-24T07:31:06.343Z,101580.53
2022-11-24T07:32:09.699Z,101592.16
2022-11-24T07:33:13.171Z,101597.91
2022-11-24T07:34:16.464Z,101589.91
2022-11-24T07:35:18.771Z,101593.66
2022-11-24T07:36:22.718Z,101595.78
2022-11-24T07:37:31.229Z,101593.28
2022-11-24T07:38:35.574Z,101589.38
2022-11-24T07:39:38.879Z,101599.50
2022-11-24T07:40:41.130Z,101591.59
2022-11-24T07:41:44.483Z,101597.09
2022-11-24T07:42:46.669Z,101592.31
2022-11-24T07:43:50.740Z,101591.16
2022-11-24T07:44:53.037Z,101593.28
2022-11-24T07:45:56.432Z,101603.53
2022-11-24T07:46:59.729Z,101596.66
2022-11-24T07:48:03.097Z,101597.22
2022-11-24T07:49:05.456Z,101605.59
2022-11-24T07:50:10.837Z,101608.22
2022-11-24T07:51:14.135Z,101607.44
2022-11-24T07:52:16.387Z,101612.00
2022-11-24T07:53:21.561Z,101617.72
2022-11-24T07:54:24.825Z,101622.53
2022-11-24T07:55:26.942Z,101613.50
2022-11-24T07:56:30.187Z,101625.19
2022-11-24T07:57:32.439Z,101622.56
2022-11-24T07:58:37.626Z,101617.72
2022-11-24T07:59:39.825Z,101612.75
2022-11-24T08:00:43.056Z,101612.91
2022-11-24T08:01:46.960Z,101626.06
2022-11-24T08:02:49.316Z,101620.63
2022-11-24T08:03:52.645Z,101623.63
2022-11-24T08:04:55.314Z,101618.59
2022-11-24T08:06:23.237Z,101621.38
2022-11-24T08:07:23.558Z,101621.16
2022-11-24T08:08:33.306Z,101623.81
2022-11-24T08:09:36.649Z,101631.03
2022-11-24T08:10:40.261Z,101631.03
2022-11-24T08:11:43.488Z,101627.84
2022-11-24T08:12:46.726Z,101628.16
2022-11-24T08:13:49.922Z,101633.38
2022-11-24T08:14:52.150Z,101637.72
2022-11-24T08:15:55.351Z,101634.63
2022-11-24T08:16:59.339Z,101636.59
2022-11-24T08:18:02.676Z,101639.22
2022-11-24T08:19:06.198Z,101636.38
2022-11-24T08:20:10.282Z,101640.09
2022-11-24T08:21:15.167Z,101643.03
2022-11-24T08:22:17.535Z,101642.16
2022-11-24T08:23:20.868Z,101635.63
2022-11-24T08:24:25.993Z,101642.91
2022-11-24T08:25:32.237Z,101641.34
2022-11-24T08:26:35.496Z,101643.91
2022-11-24T08:27:38.440Z,101645.09
2022-11-24T08:28:42.166Z,101640.13
2022-11-24T08:29:45.528Z,101640.41
2022-11-24T08:30:47.775Z,101651.44
2022-11-24T08:31:50.989Z,101646.19
2022-11-24T08:32:53.401Z,101648.03
2022-11-24T08:33:56.957Z,101642.00
2022-11-24T08:35:13.355Z,101644.66
2022-11-24T08:36:18.178Z,101640.91
2022-11-24T08:37:21.398Z,101650.22
2022-11-24T08:38:23.595Z,101641.28
2022-11-24T08:39:28.950Z,101646.09
2022-11-24T08:40:32.319Z,101653.75
2022-11-24T08:41:34.579Z,101649.34
2022-11-24T08:42:37.836Z,101655.19
2022-11-24T08:43:40.739Z,101654.38
2022-11-24T08:44:44.440Z,101653.56
2022-11-24T08:45:46.692Z,101655.19
2022-11-24T08:46:50.120Z,101651.69
2022-11-24T08:47:54.144Z,101667.00
2022-11-24T08:48:57.689Z,101664.34
2022-11-24T08:50:00.175Z,101660.88
2022-11-24T08:51:08.618Z,101664.72
2022-11-24T08:52:12.005Z,101668.31
2022-11-24T08:53:14.251Z,101660.41
2022-11-24T08:54:18.882Z,101661.19
2022-11-24T08:55:22.682Z,101667.00
2022-11-24T08:56:27.018Z,101670.28
2022-11-24T08:57:30.383Z,101665.78
2022-11-24T08:58:33.192Z,101673.44
2022-11-24T08:59:36.554Z,101670.34
2022-11-24T09:00:38.942Z,101679.34
2022-11-24T09:01:43.167Z,101675.63
2022-11-24T09:02:45.316Z,101680.59
2022-11-24T09:03:51.376Z,101679.34
2022-11-24T09:04:54.833Z,101677.53
2022-11-24T09:05:57.000Z,101682.81
2022-11-24T09:07:00.483Z,101685.16
2022-11-24T09:08:02.634Z,101686.06
2022-11-24T09:09:06.140Z,101679.78
2022-11-24T09:10:09.321Z,101683.63
2022-11-24T09:11:15.743Z,101674.09
2022-11-24T09:12:19.130Z,101670.91
2022-11-24T09:13:21.276Z,101681.28
2022-11-24T09:14:24.548Z,101671.06
2022-11-24T09:15:27.826Z,101678.97
2022-11-24T09:16:31.524Z,101679.13
2022-11-24T09:17:35.394Z,101679.56
2022-11-24T09:18:39.259Z,101669.41
2022-11-24T09:19:42.611Z,101673.19
2022-11-24T09:20:45.368Z,101675.75
2022-11-24T09:21:49.063Z,101668.41
2022-11-24T09:22:52.363Z,101667.97
2022-11-24T09:23:56.412Z,101651.38
2022-11-24T09:24:58.797Z,101651.03
2022-11-24T09:26:05.942Z,101647.19
2022-11-24T09:27:10.873Z,101654.16
2022-11-24T09:28:14.207Z,101653.91
2022-11-24T09:29:17.559Z,101662.63
2022-11-24T09:30:20.469Z,101660.16
2022-11-24T09:31:25.957Z,101664.13
2022-11-24T09:32:30.649Z,101661.19
2022-11-24T09:33:33.893Z,101653.00
2022-11-24T09:34:37.254Z,101649.88
2022-11-24T09:35:39.479Z,101648.03
2022-11-24T09:36:43.407Z,101641.16
2022-11-24T09:37:48.441Z,101635.44
2022-11-24T09:38:50.703Z,101642.25
2022-11-24T09:39:54.037Z,101642.44
2022-11-24T09:40:56.727Z,101641.66
2022-11-24T09:42:08.964Z,101655.59
2022-11-24T09:43:24.664Z,101653.69
2022-11-24T09:45:10.777Z,101639.25
2022-11-24T09:46:21.646Z,101645.72
2022-11-24T09:47:36.555Z,101648.59
2022-11-24T09:48:43.815Z,101650.69
2022-11-24T09:49:55.550Z,101653.81
2022-11-24T09:51:02.062Z,101650.69
2022-11-24T09:52:10.133Z,101647.19
2022-11-24T09:53:20.225Z,101650.06
2022-11-24T09:54:27.755Z,101647.94
2022-11-24T09:55:39.167Z,101648.47
2022-11-24T09:56:43.750Z,101660.63
2022-11-24T09:57:52.710Z,101655.28
2022-11-24T09:59:02.946Z,101658.44
2022-11-24T10:00:14.572Z,101659.72
2022-11-24T10:01:19.905Z,101670.81
2022-11-24T10:02:23.709Z,101667.94
2022-11-24T10:03:32.306Z,101665.78
2022-11-24T10:04:40.991Z,101661.28
2022-11-24T10:05:43.691Z,101660.25
2022-11-24T10:06:51.562Z,101659.78
2022-11-24T10:08:04.909Z,101665.09
2022-11-24T10:09:15.743Z,101672.75
2022-11-24T10:10:25.258Z,101683.38
2022-11-24T10:11:38.170Z,101674.91
2022-11-24T10:12:56.710Z,101676.56
2022-11-24T10:14:43.482Z,101669.31
2022-11-24T10:15:54.697Z,101671.06
2022-11-24T10:17:08.135Z,101674.03
2022-11-24T10:18:36.201Z,101666.59
2022-11-24T10:19:48.277Z,101668.50
2022-11-24T10:21:00.531Z,101660.84
2022-11-24T10:22:17.573Z,101662.69
2022-11-24T10:23:39.439Z,101663.66
2022-11-24T10:25:13.679Z,101659.19
2022-11-24T10:26:20.752Z,101660.97
2022-11-24T10:27:28.768Z,101650.13
2022-11-24T10:28:41.040Z,101644.13
2022-11-24T10:29:50.053Z,101652.03
2022-11-24T10:30:53.472Z,101653.56
2022-11-24T10:31:58.374Z,101648.28
2022-11-24T10:33:07.582Z,101641.19
2022-11-24T10:34:14.921Z,101634.13
2022-11-24T10:35:21.808Z,101638.88
2022-11-24T10:36:37.239Z,101641.19
2022-11-24T10:37:48.320Z,101643.06
2022-11-24T10:39:00.273Z,101652.03
2022-11-24T10:40:33.024Z,101651.97
2022-11-24T10:41:43.621Z,101648.72
2022-11-24T10:42:49.010Z,101651.28
2022-11-24T10:43:52.708Z,101649.22
2022-11-24T10:45:05.519Z,101651.28
2022-11-24T10:46:16.228Z,101646.13
2022-11-24T10:47:20.070Z,101645.91
2022-11-24T10:48:28.587Z,101637.38
2022-11-24T10:49:33.953Z,101632.28
2022-11-24T10:50:40.159Z,101621.94
2022-11-24T10:51:53.186Z,101618.00
2022-11-24T10:53:08.349Z,101620.63
2022-11-24T10:54:17.096Z,101614.53
2022-11-24T10:55:21.743Z,101622.69
2022-11-24T10:56:25.308Z,101620.84
2022-11-24T10:57:31.064Z,101621.38
2022-11-24T10:58:38.258Z,101633.03
2022-11-24T10:59:42.035Z,101621.72
2022-11-24T11:00:45.704Z,101622.97
2022-11-24T11:01:50.010Z,101625.59
2022-11-24T11:03:13.673Z,101633.66
2022-11-24T11:04:20.137Z,101617.28
2022-11-24T11:05:42.087Z,101613.31
2022-11-24T11:06:45.823Z,101613.03
2022-11-24T11:07:49.647Z,101614.34
2022-11-24T11:09:19.406Z,101613.31
2022-11-24T11:10:24.568Z,101614.13
2022-11-24T11:11:29.718Z,101616.00
2022-11-24T11:12:44.025Z,101611.28
2022-11-24T11:14:02.920Z,101612.38
2022-11-24T11:15:24.406Z,101614.03
2022-11-24T11:16:35.009Z,101612.25
2022-11-24T11:17:39.167Z,101610.09
2022-11-24T11:18:50.307Z,101608.25
2022-11-24T11:20:02.063Z,101606.13
2022-11-24T11:21:07.176Z,101599.34
2022-11-24T11:22:21.187Z,101589.28
2022-11-24T11:23:29.239Z,101599.16
2022-11-24T11:24:31.651Z,101597.69
2022-11-24T11:25:38.372Z,101596.03
2022-11-24T11:26:42.531Z,101586.63
2022-11-24T11:27:45.800Z,101584.06
2022-11-24T11:31:15.621Z,101595.56
2022-11-24T11:34:56.721Z,101575.63
2022-11-24T11:36:03.214Z,101570.66
2022-11-24T11:37:06.904Z,101574.88
2022-11-24T11:38:12.576Z,101573.00
2022-11-24T11:39:27.354Z,101573.25
2022-11-24T11:40:33.099Z,101577.72
2022-11-24T11:41:42.133Z,101571.53
2022-11-24T11:43:05.480Z,101576.09
2022-11-24T11:44:22.983Z,101570.66
2022-11-24T11:45:30.199Z,101565.91
2022-11-24T11:46:35.042Z,101561.91
2022-11-24T11:47:45.753Z,101561.16
2022-11-24T11:48:48.414Z,101554.88
2022-11-24T11:49:52.504Z,101545.66
2022-11-24T11:52:42.917Z,101543.78
2022-11-24T11:53:55.082Z,101543.47
2022-11-24T11:55:39.022Z,101541.41
2022-11-24T11:56:46.107Z,101541.44
2022-11-24T11:57:57.825Z,101539.56
2022-11-24T11:59:25.534Z,101538.22
2022-11-24T12:00:31.134Z,101532.44
2022-11-24T12:01:57.316Z,101532.41
2022-11-24T12:03:20.763Z,101528.94
2022-11-24T12:04:36.619Z,101520.44
2022-11-24T12:05:52.396Z,101517.25
2022-11-24T12:07:13.322Z,101517.00
2022-11-24T12:08:26.889Z,101507.47
2022-11-24T12:09:42.480Z,101513.00
2022-11-24T12:10:51.227Z,101511.69
2022-11-24T12:12:07.577Z,101518.50
2022-11-24T12:13:33.187Z,101516.28
2022-11-24T12:14:45.660Z,101513.13
2022-11-24T12:15:51.846Z,101511.97
2022-11-24T12:17:03.333Z,101509.88
2022-11-24T12:18:55.180Z,101513.66
2022-11-24T12:19:57.344Z,101501.59
2022-11-24T12:21:09.023Z,101496.63
2022-11-24T12:22:24.681Z,101499.28
2022-11-24T12:23:39.915Z,101493.53
2022-11-24T12:24:51.550Z,101490.34
2022-11-24T12:25:59.585Z,101502.00
2022-11-24T12:27:06.909Z,101495.94
2022-11-24T12:28:25.168Z,101499.63
2022-11-24T12:30:03.766Z,101502.25
2022-11-24T12:31:08.512Z,101501.69
2022-11-24T12:32:28.571Z,101492.16
2022-11-24T12:33:57.895Z,101502.94
2022-11-24T12:35:18.007Z,101499.69
2022-11-24T12:36:33.875Z,101493.94
2022-11-24T12:37:52.828Z,101488.94
2022-11-24T12:39:04.096Z,101487.34
2022-11-24T12:40:16.013Z,101488.97